createdAt,value
2018-06-16T00:01:09.563Z,59.10
2018-06-16T00:03:37.807Z,59.80
2018-06-16T00:06:06.076Z,59.40
2018-06-16T00:08:34.344Z,59.20
2018-06-16T00:11:02.628Z,59.10
2018-06-16T00:13:30.870Z,59.00
2018-06-16T00:15:59.136Z,59.30
2018-06-16T00:18:27.402Z,59.00
2018-06-16T00:20:57.341Z,59.10
2018-06-16T00:23:25.663Z,59.10
2018-06-16T00:25:54.673Z,59.40
2018-06-16T00:28:22.944Z,59.20
2018-06-16T00:30:51.967Z,59.70
2018-06-16T00:33:20.217Z,59.60
2018-06-16T00:35:48.503Z,59.30
2018-06-16T00:38:16.835Z,59.30
2018-06-16T00:40:45.090Z,59.90
2018-06-16T00:43:13.497Z,59.40
2018-06-16T00:45:42.507Z,59.30
2018-06-16T00:48:10.807Z,59.30
2018-06-16T00:50:39.895Z,59.40
2018-06-16T00:53:08.151Z,59.30
2018-06-16T00:55:37.172Z,59.30
2018-06-16T00:58:05.440Z,59.30
2018-06-16T01:00:33.693Z,58.90
2018-06-16T01:03:02.193Z,59.10
2018-06-16T01:05:30.452Z,59.20
2018-06-16T01:07:59.471Z,59.10
2018-06-16T01:10:27.732Z,59.10
2018-06-16T01:12:55.975Z,59.50
2018-06-16T01:15:25.015Z,59.70
2018-06-16T01:17:53.283Z,59.60
2018-06-16T01:20:21.547Z,59.10
2018-06-16T01:22:49.791Z,59.20
2018-06-16T01:25:18.805Z,59.30
2018-06-16T01:27:47.078Z,59.20
2018-06-16T01:30:15.324Z,59.20
2018-06-16T01:32:43.699Z,58.80
2018-06-16T01:35:11.960Z,58.40
2018-06-16T01:37:40.204Z,58.60
2018-06-16T01:40:08.474Z,58.60
2018-06-16T01:42:37.497Z,58.40
2018-06-16T01:45:05.765Z,58.30
2018-06-16T01:47:34.020Z,58.60
2018-06-16T01:50:02.490Z,58.80
2018-06-16T01:52:30.726Z,58.80
2018-06-16T01:54:59.750Z,59.60
2018-06-16T01:57:28.011Z,59.60
2018-06-16T01:59:57.043Z,60.20
2018-06-16T02:02:25.438Z,60.20
2018-06-16T02:04:53.711Z,60.30
2018-06-16T02:07:21.961Z,60.00
2018-06-16T02:09:50.267Z,60.20
2018-06-16T02:12:18.529Z,60.40
2018-06-16T02:14:46.799Z,60.40
2018-06-16T02:17:15.069Z,60.50
2018-06-16T02:19:43.358Z,60.70
2018-06-16T02:22:11.624Z,60.30
2018-06-16T02:24:39.891Z,60.80
2018-06-16T02:27:08.127Z,60.80
2018-06-16T02:29:37.147Z,60.80
2018-06-16T02:32:05.399Z,60.70
2018-06-16T02:34:34.440Z,60.90
2018-06-16T02:37:02.679Z,60.90
2018-06-16T02:39:31.063Z,61.70
2018-06-16T02:41:59.309Z,61.50
2018-06-16T02:44:28.332Z,61.40
2018-06-16T02:46:56.602Z,61.30
2018-06-16T02:49:24.846Z,61.00
2018-06-16T02:51:53.121Z,61.10
2018-06-16T02:54:21.365Z,61.70
2018-06-16T02:56:49.645Z,61.80
2018-06-16T02:59:18.856Z,62.00
2018-06-16T03:01:47.107Z,61.90
2018-06-16T03:04:15.958Z,62.50
2018-06-16T03:06:44.971Z,62.80
2018-06-16T03:09:13.241Z,62.70
2018-06-16T03:11:42.424Z,62.90
2018-06-16T03:14:10.671Z,63.00
2018-06-16T03:16:39.715Z,62.80
2018-06-16T03:19:07.985Z,62.70
2018-06-16T03:21:36.254Z,63.00
2018-06-16T03:24:04.502Z,62.30
2018-06-16T03:26:33.712Z,62.70
2018-06-16T03:29:01.977Z,62.60
2018-06-16T03:31:31.137Z,63.10
2018-06-16T03:33:59.406Z,63.10
2018-06-16T03:36:27.682Z,63.20
2018-06-16T03:38:55.947Z,62.50
2018-06-16T03:41:24.213Z,62.10
2018-06-16T03:43:52.472Z,62.40
2018-06-16T03:46:20.736Z,62.60
2018-06-16T03:48:49.008Z,62.20
2018-06-16T03:51:17.371Z,62.60
2018-06-16T03:53:46.584Z,62.70
2018-06-16T03:56:14.837Z,62.70
2018-06-16T03:58:43.854Z,62.90
2018-06-16T04:01:12.131Z,62.90
2018-06-16T04:03:40.444Z,63.30
2018-06-16T04:06:08.703Z,63.20
2018-06-16T04:08:36.988Z,63.90
2018-06-16T04:11:05.234Z,63.90
2018-06-16T04:13:33.725Z,64.00
2018-06-16T04:16:01.972Z,64.00
2018-06-16T04:18:30.998Z,63.90
2018-06-16T04:20:59.275Z,63.90
2018-06-16T04:23:27.529Z,64.00
2018-06-16T04:25:55.793Z,64.00
2018-06-16T04:28:24.069Z,64.10
2018-06-16T04:30:52.335Z,64.20
2018-06-16T04:33:21.423Z,64.30
2018-06-16T04:35:49.729Z,64.20
2018-06-16T04:38:18.303Z,64.30
2018-06-16T04:40:46.567Z,64.30
2018-06-16T04:43:15.594Z,63.70
2018-06-16T04:45:43.931Z,63.70
2018-06-16T04:48:12.119Z,63.10
2018-06-16T04:50:40.389Z,63.80
2018-06-16T04:53:08.657Z,63.50
2018-06-16T04:55:37.686Z,63.50
2018-06-16T04:58:06.097Z,63.30
2018-06-16T05:00:34.355Z,63.00
2018-06-16T05:03:03.517Z,63.50
2018-06-16T05:05:31.800Z,62.70
2018-06-16T05:08:00.041Z,62.80
2018-06-16T05:10:29.075Z,63.70
2018-06-16T05:12:57.346Z,63.70
2018-06-16T05:15:25.628Z,62.00
2018-06-16T05:17:53.894Z,63.10
2018-06-16T05:20:22.157Z,62.60
2018-06-16T05:22:50.424Z,62.20
2018-06-16T05:25:18.683Z,62.10
2018-06-16T05:27:47.718Z,63.10
2018-06-16T05:30:15.975Z,63.00
2018-06-16T05:32:44.250Z,62.60
2018-06-16T05:35:12.521Z,61.70
2018-06-16T05:37:41.025Z,61.30
2018-06-16T05:40:09.338Z,62.00
2018-06-16T05:42:37.594Z,61.90
2018-06-16T05:45:05.971Z,61.50
2018-06-16T05:47:34.227Z,62.00
2018-06-16T05:50:03.243Z,61.10
2018-06-16T05:52:31.512Z,61.10
2018-06-16T05:54:59.783Z,61.60
2018-06-16T05:57:28.065Z,61.90
2018-06-16T05:59:56.318Z,60.80
2018-06-16T06:02:24.581Z,60.50
2018-06-16T06:04:52.863Z,60.50
2018-06-16T06:07:21.132Z,60.40
2018-06-16T06:09:49.409Z,60.50
2018-06-16T06:12:17.674Z,60.20
2018-06-16T06:14:45.941Z,60.20
2018-06-16T06:17:14.981Z,59.80
2018-06-16T06:19:43.262Z,59.80
2018-06-16T06:22:12.039Z,58.60
2018-06-16T06:24:41.065Z,57.90
2018-06-16T06:27:09.329Z,57.90
2018-06-16T06:29:37.590Z,57.50
2018-06-16T06:32:05.881Z,57.50
2018-06-16T06:34:34.150Z,58.70
2018-06-16T06:37:02.406Z,59.30
2018-06-16T06:39:30.695Z,60.50
2018-06-16T06:41:58.951Z,59.10
2018-06-16T06:44:27.210Z,59.60
2018-06-16T06:46:55.674Z,59.40
2018-06-16T06:49:23.939Z,59.10
2018-06-16T06:51:52.954Z,59.10
2018-06-16T06:54:21.371Z,59.00
2018-06-16T06:56:49.643Z,58.30
2018-06-16T06:59:17.896Z,58.70
2018-06-16T07:01:46.172Z,57.90
2018-06-16T07:04:14.423Z,57.70
2018-06-16T07:06:42.712Z,57.70
2018-06-16T07:09:10.971Z,57.20
2018-06-16T07:11:39.248Z,56.80
2018-06-16T07:14:07.508Z,56.80
2018-06-16T07:16:36.528Z,55.90
2018-06-16T07:19:04.795Z,55.90
2018-06-16T07:21:33.038Z,55.00
2018-06-16T07:24:01.299Z,53.30
2018-06-16T07:26:29.558Z,53.20
2018-06-16T07:28:57.827Z,54.20
2018-06-16T07:31:26.070Z,54.60
2018-06-16T07:33:54.325Z,54.70
2018-06-16T07:36:23.364Z,54.10
2018-06-16T07:38:51.679Z,54.10
2018-06-16T07:41:19.887Z,54.80
2018-06-16T07:43:48.151Z,54.40
2018-06-16T07:46:16.417Z,54.40
2018-06-16T07:48:45.489Z,54.90
2018-06-16T07:51:13.739Z,54.90
2018-06-16T07:53:42.189Z,55.00
2018-06-16T07:56:10.434Z,55.30
2018-06-16T07:58:38.675Z,54.90
2018-06-16T08:01:06.941Z,55.00
2018-06-16T08:03:35.187Z,53.70
2018-06-16T08:06:03.427Z,53.40
2018-06-16T08:08:32.459Z,53.40
2018-06-16T08:11:00.749Z,53.40
2018-06-16T08:13:29.011Z,52.80
2018-06-16T08:15:57.278Z,52.80
2018-06-16T08:18:25.724Z,52.50
2018-06-16T08:20:53.943Z,52.80
2018-06-16T08:23:22.200Z,51.90
2018-06-16T08:25:50.454Z,51.10
2018-06-16T08:28:19.488Z,51.10
2018-06-16T08:30:47.739Z,51.00
2018-06-16T08:33:15.993Z,51.10
2018-06-16T08:35:45.027Z,51.80
2018-06-16T08:38:13.271Z,51.80
2018-06-16T08:40:42.332Z,49.80
2018-06-16T08:43:10.613Z,49.80
2018-06-16T08:45:38.854Z,49.50
2018-06-16T08:48:07.098Z,50.60
2018-06-16T08:50:36.141Z,46.80
2018-06-16T08:53:04.405Z,46.80
2018-06-16T08:55:32.711Z,47.40
2018-06-16T08:58:00.945Z,46.50
2018-06-16T09:00:29.435Z,46.40
2018-06-16T09:02:57.908Z,46.20
2018-06-16T09:05:26.170Z,46.40
2018-06-16T09:07:54.432Z,48.90
2018-06-16T09:10:23.211Z,45.70
2018-06-16T09:12:51.463Z,45.80
2018-06-16T09:15:19.710Z,45.60
2018-06-16T09:17:48.259Z,45.80
2018-06-16T09:20:16.507Z,45.50
2018-06-16T09:22:45.532Z,43.30
2018-06-16T09:25:13.877Z,43.30
2018-06-16T09:27:42.921Z,41.40
2018-06-16T09:30:11.173Z,41.50
2018-06-16T09:32:39.411Z,42.90
2018-06-16T09:35:08.439Z,45.20
2018-06-16T09:37:36.701Z,44.40
2018-06-16T09:40:04.953Z,44.00
2018-06-16T09:42:34.045Z,42.60
2018-06-16T09:45:02.273Z,42.40
2018-06-16T09:47:30.518Z,44.50
2018-06-16T09:49:58.770Z,42.50
2018-06-16T09:52:27.026Z,43.00
2018-06-16T09:54:55.275Z,43.10
2018-06-16T09:57:23.545Z,44.80
2018-06-16T09:59:51.816Z,41.70
2018-06-16T10:02:20.093Z,43.30
2018-06-16T10:04:48.370Z,41.80
2018-06-16T10:07:17.455Z,42.30
2018-06-16T10:09:45.698Z,42.10
2018-06-16T10:12:14.735Z,41.20
2018-06-16T10:14:42.991Z,41.20
2018-06-16T10:17:12.265Z,39.50
2018-06-16T10:19:41.277Z,42.00
2018-06-16T10:22:09.526Z,41.90
2018-06-16T10:24:38.556Z,40.10
2018-06-16T10:27:06.856Z,39.90
2018-06-16T10:29:35.118Z,41.00
2018-06-16T10:32:03.402Z,39.40
2018-06-16T10:34:31.640Z,39.70
2018-06-16T10:36:59.900Z,37.00
2018-06-16T10:39:28.939Z,38.30
2018-06-16T10:41:57.189Z,38.30
2018-06-16T10:44:25.461Z,37.60
2018-06-16T10:46:53.711Z,37.50
2018-06-16T10:49:22.717Z,37.40
2018-06-16T10:51:51.794Z,36.10
2018-06-16T10:54:20.004Z,36.10
2018-06-16T10:56:48.303Z,37.30
2018-06-16T10:59:16.560Z,37.40
2018-06-16T11:01:44.996Z,36.20
2018-06-16T11:04:14.006Z,36.20
2018-06-16T11:06:42.271Z,36.40
2018-06-16T11:09:11.324Z,36.30
2018-06-16T11:11:39.547Z,36.20
2018-06-16T11:14:08.572Z,35.90
2018-06-16T11:16:36.844Z,35.90
2018-06-16T11:19:05.157Z,35.90
2018-06-16T11:21:33.355Z,37.80
2018-06-16T11:24:04.020Z,37.20
2018-06-16T11:26:32.677Z,37.10
2018-06-16T11:29:00.901Z,36.20
2018-06-16T11:31:29.159Z,36.30
2018-06-16T11:33:57.423Z,37.00
2018-06-16T11:36:25.692Z,34.60
2018-06-16T11:38:53.960Z,33.00
2018-06-16T11:41:22.991Z,35.50
2018-06-16T11:43:51.251Z,35.50
2018-06-16T11:46:19.516Z,36.20
2018-06-16T11:48:47.846Z,33.80
2018-06-16T11:51:16.049Z,35.30
2018-06-16T11:53:44.427Z,34.10
2018-06-16T11:56:12.644Z,35.10
2018-06-16T11:58:40.903Z,32.70
2018-06-16T12:01:09.173Z,33.90
2018-06-16T12:03:37.443Z,33.10
2018-06-16T12:06:05.717Z,31.90
2018-06-16T12:08:34.737Z,32.60
2018-06-16T12:11:03.189Z,32.50
2018-06-16T12:13:32.195Z,33.30
2018-06-16T12:16:00.580Z,33.40
2018-06-16T12:18:28.845Z,33.30
2018-06-16T12:20:57.092Z,33.50
2018-06-16T12:23:26.118Z,32.50
2018-06-16T12:25:54.392Z,32.50
2018-06-16T12:28:22.641Z,33.20
2018-06-16T12:30:50.892Z,31.90
2018-06-16T12:33:19.943Z,33.20
2018-06-16T12:35:48.352Z,33.10
2018-06-16T12:38:16.607Z,33.50
2018-06-16T12:40:44.847Z,31.90
2018-06-16T12:43:13.107Z,32.90
2018-06-16T12:45:41.358Z,32.10
2018-06-16T12:48:09.828Z,31.90
2018-06-16T12:50:38.079Z,34.00
2018-06-16T12:53:06.331Z,32.90
2018-06-16T12:55:34.610Z,32.50
2018-06-16T12:58:02.860Z,30.20
2018-06-16T13:00:31.113Z,32.00
2018-06-16T13:02:59.400Z,31.10
2018-06-16T13:20:48.254Z,32.40
2018-06-16T13:26:26.794Z,32.70
2018-06-16T13:28:55.031Z,32.50
2018-06-16T13:31:23.431Z,32.70
2018-06-16T13:33:51.684Z,33.90
2018-06-16T13:36:19.943Z,34.10
2018-06-16T13:38:48.223Z,34.60
2018-06-16T13:41:16.472Z,32.00
2018-06-16T13:43:45.501Z,37.10
2018-06-16T13:46:13.779Z,37.10
2018-06-16T13:48:42.039Z,35.00
2018-06-16T13:51:10.296Z,35.40
2018-06-16T13:53:38.551Z,35.80
2018-06-16T13:56:07.562Z,34.30
2018-06-16T13:58:36.570Z,33.20
2018-06-16T14:01:04.850Z,33.20
2018-06-16T14:03:33.099Z,36.10
2018-06-16T14:06:02.114Z,33.40
2018-06-16T14:08:30.350Z,33.40
2018-06-16T14:10:58.611Z,33.40
2018-06-16T14:13:26.866Z,33.20
2018-06-16T14:15:55.413Z,33.00
2018-06-16T14:18:23.660Z,32.70
2018-06-16T14:20:51.899Z,32.10
2018-06-16T14:23:20.170Z,32.10
2018-06-16T14:25:48.443Z,33.30
2018-06-16T14:28:16.664Z,33.60
2018-06-16T14:30:44.915Z,33.60
2018-06-16T14:33:13.159Z,31.60
2018-06-16T14:35:41.447Z,34.60
2018-06-16T14:38:09.720Z,31.40
2018-06-16T14:40:38.742Z,31.50
2018-06-16T14:43:07.006Z,31.50
2018-06-16T14:45:35.257Z,32.40
2018-06-16T14:48:03.807Z,30.60
2018-06-16T14:50:32.052Z,30.50
2018-06-16T14:53:00.293Z,29.90
2018-06-16T14:55:28.558Z,31.20
2018-06-16T14:57:56.801Z,31.30
2018-06-16T15:00:25.070Z,30.40
2018-06-16T15:02:54.071Z,31.20
2018-06-16T15:05:22.337Z,31.00
2018-06-16T15:07:51.392Z,33.30
2018-06-16T15:10:20.393Z,33.20
2018-06-16T15:12:48.642Z,33.10
2018-06-16T15:15:16.889Z,31.00
2018-06-16T15:17:45.132Z,31.10
2018-06-16T15:20:14.226Z,28.60
2018-06-16T15:22:42.430Z,28.60
2018-06-16T15:25:10.694Z,28.50
2018-06-16T15:27:38.950Z,28.30
2018-06-16T15:30:07.222Z,29.20
2018-06-16T15:32:35.478Z,30.40
2018-06-16T15:35:03.731Z,28.40
2018-06-16T15:37:31.995Z,29.20
2018-06-16T15:40:00.237Z,29.00
2018-06-16T15:42:29.266Z,29.60
2018-06-16T15:44:57.622Z,29.70
2018-06-16T15:47:25.884Z,28.20
2018-06-16T15:49:54.893Z,27.80
2018-06-16T15:52:23.154Z,27.80
2018-06-16T15:54:51.432Z,29.80
2018-06-16T15:57:19.647Z,29.90
2018-06-16T15:59:47.923Z,28.30
2018-06-16T16:02:16.233Z,31.10
2018-06-16T16:04:44.437Z,28.40
2018-06-16T16:07:12.926Z,29.20
2018-06-16T16:09:41.162Z,29.10
2018-06-16T16:12:10.163Z,28.80
2018-06-16T16:14:39.190Z,28.40
2018-06-16T16:17:07.435Z,28.40
2018-06-16T16:19:36.561Z,29.70
2018-06-16T16:22:04.806Z,29.60
2018-06-16T16:24:33.806Z,28.90
2018-06-16T16:27:02.068Z,28.90
2018-06-16T16:29:31.076Z,28.70
2018-06-16T16:31:59.330Z,28.60
2018-06-16T16:34:28.343Z,30.80
2018-06-16T16:36:56.600Z,30.70
2018-06-16T16:39:25.620Z,27.60
2018-06-16T16:41:53.860Z,27.60
2018-06-16T16:44:22.109Z,28.30
2018-06-16T16:46:50.511Z,28.90
2018-06-16T16:49:18.765Z,29.40
2018-06-16T16:51:47.083Z,30.60
2018-06-16T16:54:16.098Z,29.40
2018-06-16T16:56:44.342Z,29.30
2018-06-16T16:59:13.363Z,29.00
2018-06-16T17:01:41.599Z,28.90
2018-06-16T17:04:10.618Z,30.20
2018-06-16T17:06:39.635Z,28.80
2018-06-16T17:09:07.886Z,28.70
2018-06-16T17:11:36.124Z,30.40
2018-06-16T17:14:04.376Z,30.20
2018-06-16T17:16:32.695Z,31.50
2018-06-16T17:19:01.712Z,31.40
2018-06-16T17:21:29.954Z,31.40
2018-06-16T17:23:58.966Z,33.40
2018-06-16T17:26:27.221Z,33.30
2018-06-16T17:28:56.233Z,32.70
2018-06-16T17:31:24.481Z,32.60
2018-06-16T17:33:52.729Z,34.40
2018-06-16T17:36:21.008Z,35.80
2018-06-16T17:38:49.386Z,36.10
2018-06-16T17:41:17.830Z,36.10
2018-06-16T17:43:46.075Z,36.70
2018-06-16T17:46:15.083Z,36.70
2018-06-16T17:48:44.097Z,36.10
2018-06-16T17:51:12.543Z,36.00
2018-06-16T17:53:40.724Z,36.20
2018-06-16T17:56:08.964Z,36.40
2018-06-16T17:58:37.215Z,37.70
2018-06-16T18:01:05.455Z,36.60
2018-06-16T18:03:33.716Z,36.60
2018-06-16T18:06:02.717Z,36.50
2018-06-16T18:08:30.974Z,37.30
2018-06-16T18:10:59.982Z,37.90
2018-06-16T18:13:28.442Z,37.80
2018-06-16T18:15:57.459Z,38.30
2018-06-16T18:18:25.704Z,38.20
2018-06-16T18:20:53.958Z,37.90
2018-06-16T18:23:22.201Z,39.20
2018-06-16T18:25:50.466Z,37.00
2018-06-16T18:28:18.722Z,36.80
2018-06-16T18:30:47.750Z,36.50
2018-06-16T18:33:16.010Z,36.50
2018-06-16T18:35:44.246Z,38.60
2018-06-16T18:38:13.396Z,37.30
2018-06-16T18:40:41.640Z,37.50
2018-06-16T18:43:10.699Z,40.90
2018-06-16T18:45:39.002Z,40.80
2018-06-16T18:48:07.998Z,42.70
2018-06-16T18:50:36.467Z,42.70
2018-06-16T18:53:05.473Z,45.50
2018-06-16T18:55:33.711Z,45.50
2018-06-16T18:58:01.982Z,47.50
2018-06-16T19:00:30.219Z,46.40
2018-06-16T19:02:58.480Z,46.40
2018-06-16T19:05:26.723Z,46.70
2018-06-16T19:07:55.735Z,47.70
2018-06-16T19:10:24.758Z,48.20
2018-06-16T19:12:52.994Z,48.20
2018-06-16T19:15:22.015Z,49.40
2018-06-16T19:17:50.249Z,49.40
2018-06-16T19:20:19.885Z,49.40
2018-06-16T19:22:48.142Z,50.00
2018-06-16T19:25:17.166Z,51.10
2018-06-16T19:27:45.422Z,51.10
2018-06-16T19:30:13.691Z,51.60
2018-06-16T19:32:42.698Z,51.90
2018-06-16T19:35:10.941Z,51.90
2018-06-16T19:37:39.211Z,52.40
2018-06-16T19:40:07.450Z,51.50
2018-06-16T19:42:35.705Z,51.30
2018-06-16T19:45:03.944Z,52.00
2018-06-16T19:47:32.961Z,52.80
2018-06-16T19:50:01.229Z,52.80
2018-06-16T19:52:30.239Z,53.60
2018-06-16T19:54:58.482Z,53.60
2018-06-16T19:57:27.503Z,53.30
2018-06-16T19:59:55.747Z,53.30
2018-06-16T20:02:24.003Z,53.00
2018-06-16T20:04:52.244Z,53.10
2018-06-16T20:07:20.500Z,53.10
2018-06-16T20:09:48.884Z,53.50
2018-06-16T20:12:17.104Z,54.00
2018-06-16T20:14:45.352Z,54.20
2018-06-16T20:17:13.606Z,54.70
2018-06-16T20:19:41.863Z,55.10
2018-06-16T20:22:11.087Z,55.60
2018-06-16T20:24:39.330Z,55.60
2018-06-16T20:27:08.340Z,55.70
2018-06-16T20:29:36.623Z,55.60
2018-06-16T20:32:05.604Z,56.10
2018-06-16T20:34:33.883Z,56.00
2018-06-16T20:37:02.154Z,56.00
2018-06-16T20:39:30.407Z,55.90
2018-06-16T20:41:58.796Z,55.70
2018-06-16T20:44:27.830Z,55.60
2018-06-16T20:46:56.072Z,55.60
2018-06-16T20:49:24.327Z,55.60
2018-06-16T20:51:53.344Z,55.40
2018-06-16T20:54:21.581Z,55.30
2018-06-16T20:56:49.854Z,55.50
2018-06-16T20:59:18.096Z,55.70
2018-06-16T21:01:46.335Z,55.80
2018-06-16T21:04:14.588Z,55.80
2018-06-16T21:06:43.606Z,56.50
2018-06-16T21:09:11.887Z,56.40
2018-06-16T21:11:40.151Z,57.00
2018-06-16T21:14:09.163Z,56.80
2018-06-16T21:16:37.408Z,56.80
2018-06-16T21:19:06.446Z,56.80
2018-06-16T21:21:34.722Z,56.80
2018-06-16T21:24:03.173Z,56.80
2018-06-16T21:26:32.168Z,57.60
2018-06-16T21:29:00.411Z,56.80
2018-06-16T21:31:29.450Z,56.90
2018-06-16T21:33:57.699Z,56.80
2018-06-16T21:36:25.937Z,56.80
2018-06-16T21:38:54.194Z,56.90
2018-06-16T21:41:22.444Z,57.10
2018-06-16T21:43:50.678Z,56.50
2018-06-16T21:46:19.773Z,57.50
2018-06-16T21:48:48.044Z,56.60
2018-06-16T21:51:16.279Z,56.40
2018-06-16T21:53:44.537Z,57.00
2018-06-16T21:56:12.796Z,57.20
2018-06-16T21:58:41.047Z,57.30
2018-06-16T22:01:10.076Z,57.10
2018-06-16T22:03:38.335Z,57.10
2018-06-16T22:06:06.583Z,57.60
2018-06-16T22:08:35.051Z,57.50
2018-06-16T22:11:03.282Z,57.70
2018-06-16T22:13:31.530Z,57.60
2018-06-16T22:16:00.538Z,57.40
2018-06-16T22:18:28.819Z,57.30
2018-06-16T22:20:57.107Z,57.50
2018-06-16T22:23:25.343Z,57.40
2018-06-16T22:25:54.358Z,56.60
2018-06-16T22:28:22.617Z,56.60
2018-06-16T22:30:50.865Z,56.40
2018-06-16T22:33:19.130Z,56.40
2018-06-16T22:35:47.369Z,56.20
2018-06-16T22:38:15.634Z,56.40
2018-06-16T22:40:43.870Z,56.20
2018-06-16T22:43:13.044Z,56.60
2018-06-16T22:45:41.280Z,56.60
2018-06-16T22:48:09.526Z,56.60
2018-06-16T22:50:38.545Z,56.40
2018-06-16T22:53:06.876Z,56.40
2018-06-16T22:55:35.123Z,56.40
2018-06-16T22:58:03.363Z,56.40
2018-06-16T23:00:31.605Z,56.40
2018-06-16T23:03:00.644Z,56.50
2018-06-16T23:05:28.891Z,56.40
2018-06-16T23:07:58.126Z,56.50
2018-06-16T23:10:26.368Z,56.40
2018-06-16T23:12:55.367Z,57.20
2018-06-16T23:15:23.619Z,57.10
2018-06-16T23:17:52.634Z,56.80
2018-06-16T23:20:20.893Z,56.80
2018-06-16T23:22:49.909Z,56.90
2018-06-16T23:25:18.157Z,56.80
2018-06-16T23:27:47.180Z,56.70
2018-06-16T23:30:15.422Z,56.80
2018-06-16T23:32:44.451Z,58.40
2018-06-16T23:35:12.687Z,57.50
2018-06-16T23:37:41.718Z,56.70
2018-06-16T23:40:09.958Z,57.40
2018-06-16T23:42:38.964Z,57.20
2018-06-16T23:45:07.234Z,57.10
2018-06-16T23:47:36.240Z,57.00
2018-06-16T23:50:04.499Z,57.00
2018-06-16T23:52:33.506Z,57.10
2018-06-16T23:55:01.762Z,57.10
2018-06-16T23:57:30.771Z,56.80
2018-06-16T23:59:59.015Z,56.80
